sensor_id;sensor_type;location;lat;lon;timestamp;P1;durP1;ratioP1;P2;durP2;ratioP2
68315;SDS011;55508;54.368;18.406;2023-04-28T00:01:44;5.75;;;3.38;;
68315;SDS011;55508;54.368;18.406;2023-04-28T00:04:11;5.35;;;3.25;;
68315;SDS011;55508;54.368;18.406;2023-04-28T00:06:39;5.60;;;3.50;;
68315;SDS011;55508;54.368;18.406;2023-04-28T00:09:06;4.70;;;3.05;;
68315;SDS011;55508;54.368;18.406;2023-04-28T00:11:36;6.07;;;3.28;;
68315;SDS011;55508;54.368;18.406;2023-04-28T00:14:04;5.85;;;3.22;;
68315;SDS011;55508;54.368;18.406;2023-04-28T00:16:31;4.18;;;2.88;;
68315;SDS011;55508;54.368;18.406;2023-04-28T00:18:58;6.10;;;3.33;;
68315;SDS011;55508;54.368;18.406;2023-04-28T00:21:25;6.10;;;3.58;;
68315;SDS011;55508;54.368;18.406;2023-04-28T00:23:54;5.38;;;2.80;;
68315;SDS011;55508;54.368;18.406;2023-04-28T00:26:21;4.68;;;3.30;;
68315;SDS011;55508;54.368;18.406;2023-04-28T00:28:49;10.50;;;3.67;;
68315;SDS011;55508;54.368;18.406;2023-04-28T00:31:16;5.78;;;3.35;;
68315;SDS011;55508;54.368;18.406;2023-04-28T00:33:43;7.15;;;3.53;;
68315;SDS011;55508;54.368;18.406;2023-04-28T00:36:10;5.75;;;3.53;;
68315;SDS011;55508;54.368;18.406;2023-04-28T00:38:38;3.35;;;3.00;;
68315;SDS011;55508;54.368;18.406;2023-04-28T00:41:05;4.20;;;3.05;;
68315;SDS011;55508;54.368;18.406;2023-04-28T00:43:42;5.60;;;3.40;;
68315;SDS011;55508;54.368;18.406;2023-04-28T00:46:17;4.82;;;3.35;;
68315;SDS011;55508;54.368;18.406;2023-04-28T00:49:06;7.47;;;3.17;;
68315;SDS011;55508;54.368;18.406;2023-04-28T00:51:33;7.65;;;3.83;;
68315;SDS011;55508;54.368;18.406;2023-04-28T00:54:00;4.88;;;3.47;;
68315;SDS011;55508;54.368;18.406;2023-04-28T00:56:27;6.95;;;3.75;;
68315;SDS011;55508;54.368;18.406;2023-04-28T00:58:57;6.65;;;3.78;;
68315;SDS011;55508;54.368;18.406;2023-04-28T01:01:24;5.78;;;3.28;;
68315;SDS011;55508;54.368;18.406;2023-04-28T01:03:51;4.20;;;3.80;;
68315;SDS011;55508;54.368;18.406;2023-04-28T01:06:19;5.82;;;3.50;;
68315;SDS011;55508;54.368;18.406;2023-04-28T01:08:49;6.85;;;3.55;;
68315;SDS011;55508;54.368;18.406;2023-04-28T01:11:16;5.88;;;3.38;;
68315;SDS011;55508;54.368;18.406;2023-04-28T01:13:52;7.80;;;3.65;;
68315;SDS011;55508;54.368;18.406;2023-04-28T01:16:20;7.68;;;3.78;;
68315;SDS011;55508;54.368;18.406;2023-04-28T01:18:48;8.43;;;3.45;;
68315;SDS011;55508;54.368;18.406;2023-04-28T01:21:24;9.77;;;4.03;;
68315;SDS011;55508;54.368;18.406;2023-04-28T01:23:56;5.28;;;3.55;;
68315;SDS011;55508;54.368;18.406;2023-04-28T01:26:24;8.52;;;3.60;;
68315;SDS011;55508;54.368;18.406;2023-04-28T01:28:51;5.65;;;3.50;;
68315;SDS011;55508;54.368;18.406;2023-04-28T01:31:18;4.85;;;3.42;;
68315;SDS011;55508;54.368;18.406;2023-04-28T01:33:46;5.85;;;3.42;;
68315;SDS011;55508;54.368;18.406;2023-04-28T01:36:14;4.70;;;2.63;;
68315;SDS011;55508;54.368;18.406;2023-04-28T01:38:42;8.90;;;3.03;;
68315;SDS011;55508;54.368;18.406;2023-04-28T01:41:11;3.78;;;2.72;;
68315;SDS011;55508;54.368;18.406;2023-04-28T01:43:38;5.53;;;3.28;;
68315;SDS011;55508;54.368;18.406;2023-04-28T01:46:05;7.00;;;3.22;;
68315;SDS011;55508;54.368;18.406;2023-04-28T01:48:33;3.72;;;2.53;;
68315;SDS011;55508;54.368;18.406;2023-04-28T01:51:00;6.22;;;2.95;;
68315;SDS011;55508;54.368;18.406;2023-04-28T01:53:27;4.75;;;2.90;;
68315;SDS011;55508;54.368;18.406;2023-04-28T01:55:54;5.70;;;3.00;;
68315;SDS011;55508;54.368;18.406;2023-04-28T01:58:22;8.93;;;3.25;;
68315;SDS011;55508;54.368;18.406;2023-04-28T02:00:49;4.15;;;2.75;;
68315;SDS011;55508;54.368;18.406;2023-04-28T02:03:20;3.23;;;2.43;;
68315;SDS011;55508;54.368;18.406;2023-04-28T02:05:47;4.30;;;2.63;;
68315;SDS011;55508;54.368;18.406;2023-04-28T02:08:15;4.93;;;2.55;;
68315;SDS011;55508;54.368;18.406;2023-04-28T02:10:43;3.95;;;2.78;;
68315;SDS011;55508;54.368;18.406;2023-04-28T02:13:10;6.45;;;3.00;;
68315;SDS011;55508;54.368;18.406;2023-04-28T02:15:41;5.97;;;2.90;;
68315;SDS011;55508;54.368;18.406;2023-04-28T02:18:09;6.75;;;2.90;;
68315;SDS011;55508;54.368;18.406;2023-04-28T02:20:38;4.28;;;3.33;;
68315;SDS011;55508;54.368;18.406;2023-04-28T02:23:07;5.75;;;3.08;;
68315;SDS011;55508;54.368;18.406;2023-04-28T02:25:34;4.40;;;3.20;;
68315;SDS011;55508;54.368;18.406;2023-04-28T02:28:02;4.10;;;2.85;;
68315;SDS011;55508;54.368;18.406;2023-04-28T02:30:33;7.55;;;4.03;;
68315;SDS011;55508;54.368;18.406;2023-04-28T02:33:00;5.10;;;3.60;;
68315;SDS011;55508;54.368;18.406;2023-04-28T02:35:27;5.22;;;3.55;;
68315;SDS011;55508;54.368;18.406;2023-04-28T02:37:54;7.45;;;3.55;;
68315;SDS011;55508;54.368;18.406;2023-04-28T02:40:21;6.70;;;3.80;;
68315;SDS011;55508;54.368;18.406;2023-04-28T02:42:48;7.82;;;3.65;;
68315;SDS011;55508;54.368;18.406;2023-04-28T02:45:16;5.30;;;3.47;;
68315;SDS011;55508;54.368;18.406;2023-04-28T02:47:43;7.97;;;3.78;;
68315;SDS011;55508;54.368;18.406;2023-04-28T02:50:10;4.47;;;3.58;;
68315;SDS011;55508;54.368;18.406;2023-04-28T02:52:37;6.45;;;3.30;;
68315;SDS011;55508;54.368;18.406;2023-04-28T02:55:04;7.28;;;3.55;;
68315;SDS011;55508;54.368;18.406;2023-04-28T02:57:32;6.18;;;3.70;;
68315;SDS011;55508;54.368;18.406;2023-04-28T03:00:00;6.43;;;3.65;;
68315;SDS011;55508;54.368;18.406;2023-04-28T03:02:34;4.18;;;3.50;;
68315;SDS011;55508;54.368;18.406;2023-04-28T03:05:02;6.93;;;3.70;;
68315;SDS011;55508;54.368;18.406;2023-04-28T03:07:29;9.00;;;3.53;;
68315;SDS011;55508;54.368;18.406;2023-04-28T03:09:56;6.43;;;3.22;;
68315;SDS011;55508;54.368;18.406;2023-04-28T03:12:23;3.25;;;2.78;;
68315;SDS011;55508;54.368;18.406;2023-04-28T03:14:51;6.68;;;3.38;;
68315;SDS011;55508;54.368;18.406;2023-04-28T03:17:18;6.22;;;3.58;;
68315;SDS011;55508;54.368;18.406;2023-04-28T03:19:45;8.63;;;3.00;;
68315;SDS011;55508;54.368;18.406;2023-04-28T03:22:12;5.72;;;3.40;;
68315;SDS011;55508;54.368;18.406;2023-04-28T03:24:39;6.15;;;3.13;;
68315;SDS011;55508;54.368;18.406;2023-04-28T03:27:06;4.78;;;3.42;;
68315;SDS011;55508;54.368;18.406;2023-04-28T03:29:35;4.50;;;3.15;;
68315;SDS011;55508;54.368;18.406;2023-04-28T03:32:02;5.70;;;3.08;;
68315;SDS011;55508;54.368;18.406;2023-04-28T03:34:29;8.05;;;3.90;;
68315;SDS011;55508;54.368;18.406;2023-04-28T03:36:57;6.32;;;2.97;;
68315;SDS011;55508;54.368;18.406;2023-04-28T03:39:27;5.68;;;3.10;;
68315;SDS011;55508;54.368;18.406;2023-04-28T03:41:55;4.03;;;3.55;;
68315;SDS011;55508;54.368;18.406;2023-04-28T03:47:05;6.93;;;2.60;;
68315;SDS011;55508;54.368;18.406;2023-04-28T03:49:33;6.18;;;3.10;;
68315;SDS011;55508;54.368;18.406;2023-04-28T03:52:01;3.78;;;3.22;;
68315;SDS011;55508;54.368;18.406;2023-04-28T03:54:30;4.78;;;3.25;;
68315;SDS011;55508;54.368;18.406;2023-04-28T03:56:59;5.20;;;3.13;;
68315;SDS011;55508;54.368;18.406;2023-04-28T03:59:27;8.02;;;3.35;;
68315;SDS011;55508;54.368;18.406;2023-04-28T04:01:54;5.90;;;3.30;;
68315;SDS011;55508;54.368;18.406;2023-04-28T04:04:22;4.13;;;3.00;;
68315;SDS011;55508;54.368;18.406;2023-04-28T04:06:50;5.30;;;2.70;;
68315;SDS011;55508;54.368;18.406;2023-04-28T04:09:17;13.90;;;5.05;;
68315;SDS011;55508;54.368;18.406;2023-04-28T04:11:45;17.67;;;7.10;;
68315;SDS011;55508;54.368;18.406;2023-04-28T04:14:12;14.38;;;6.53;;
68315;SDS011;55508;54.368;18.406;2023-04-28T04:16:39;10.40;;;5.63;;
68315;SDS011;55508;54.368;18.406;2023-04-28T04:19:07;7.45;;;5.13;;
68315;SDS011;55508;54.368;18.406;2023-04-28T04:21:39;9.48;;;5.38;;
68315;SDS011;55508;54.368;18.406;2023-04-28T04:24:07;4.70;;;4.22;;
68315;SDS011;55508;54.368;18.406;2023-04-28T04:26:34;6.72;;;3.50;;
68315;SDS011;55508;54.368;18.406;2023-04-28T04:29:12;5.88;;;3.63;;
68315;SDS011;55508;54.368;18.406;2023-04-28T04:31:39;4.13;;;3.47;;
68315;SDS011;55508;54.368;18.406;2023-04-28T04:34:07;7.32;;;2.80;;
68315;SDS011;55508;54.368;18.406;2023-04-28T04:36:34;4.63;;;2.88;;
68315;SDS011;55508;54.368;18.406;2023-04-28T04:39:02;3.78;;;3.40;;
68315;SDS011;55508;54.368;18.406;2023-04-28T04:41:30;6.18;;;3.38;;
68315;SDS011;55508;54.368;18.406;2023-04-28T04:44:11;6.40;;;3.15;;
68315;SDS011;55508;54.368;18.406;2023-04-28T04:46:44;3.67;;;3.15;;
68315;SDS011;55508;54.368;18.406;2023-04-28T04:49:13;3.78;;;2.88;;
68315;SDS011;55508;54.368;18.406;2023-04-28T04:51:40;4.47;;;3.10;;
68315;SDS011;55508;54.368;18.406;2023-04-28T04:54:08;4.60;;;2.97;;
68315;SDS011;55508;54.368;18.406;2023-04-28T04:56:37;3.45;;;2.78;;
68315;SDS011;55508;54.368;18.406;2023-04-28T04:59:05;4.18;;;3.30;;
68315;SDS011;55508;54.368;18.406;2023-04-28T05:01:47;4.22;;;3.05;;
68315;SDS011;55508;54.368;18.406;2023-04-28T05:04:14;6.03;;;3.25;;
68315;SDS011;55508;54.368;18.406;2023-04-28T05:06:42;6.00;;;3.10;;
68315;SDS011;55508;54.368;18.406;2023-04-28T05:09:10;4.85;;;3.15;;
68315;SDS011;55508;54.368;18.406;2023-04-28T05:11:37;5.75;;;3.13;;
68315;SDS011;55508;54.368;18.406;2023-04-28T05:14:05;4.40;;;2.72;;
68315;SDS011;55508;54.368;18.406;2023-04-28T05:16:32;5.60;;;3.28;;
68315;SDS011;55508;54.368;18.406;2023-04-28T05:19:19;5.35;;;2.60;;
68315;SDS011;55508;54.368;18.406;2023-04-28T05:21:47;5.22;;;2.70;;
68315;SDS011;55508;54.368;18.406;2023-04-28T05:24:14;3.35;;;3.03;;
68315;SDS011;55508;54.368;18.406;2023-04-28T05:26:41;5.70;;;2.83;;
68315;SDS011;55508;54.368;18.406;2023-04-28T05:29:09;3.38;;;2.85;;
68315;SDS011;55508;54.368;18.406;2023-04-28T05:31:36;6.28;;;3.10;;
68315;SDS011;55508;54.368;18.406;2023-04-28T05:34:03;6.43;;;3.20;;
68315;SDS011;55508;54.368;18.406;2023-04-28T05:36:31;5.68;;;4.15;;
68315;SDS011;55508;54.368;18.406;2023-04-28T05:38:58;6.95;;;3.10;;
68315;SDS011;55508;54.368;18.406;2023-04-28T05:41:26;5.55;;;3.35;;
68315;SDS011;55508;54.368;18.406;2023-04-28T05:43:54;4.28;;;3.38;;
68315;SDS011;55508;54.368;18.406;2023-04-28T05:46:22;5.88;;;4.18;;
68315;SDS011;55508;54.368;18.406;2023-04-28T05:48:57;5.45;;;4.00;;
68315;SDS011;55508;54.368;18.406;2023-04-28T05:51:27;4.72;;;3.00;;
68315;SDS011;55508;54.368;18.406;2023-04-28T05:53:54;9.27;;;3.63;;
68315;SDS011;55508;54.368;18.406;2023-04-28T05:56:24;4.25;;;2.97;;
68315;SDS011;55508;54.368;18.406;2023-04-28T05:58:51;5.57;;;2.88;;
68315;SDS011;55508;54.368;18.406;2023-04-28T06:01:19;6.07;;;3.20;;
68315;SDS011;55508;54.368;18.406;2023-04-28T06:03:48;4.50;;;2.85;;
68315;SDS011;55508;54.368;18.406;2023-04-28T06:06:16;4.22;;;2.90;;
68315;SDS011;55508;54.368;18.406;2023-04-28T06:08:44;5.03;;;2.67;;
68315;SDS011;55508;54.368;18.406;2023-04-28T06:11:13;4.90;;;2.97;;
68315;SDS011;55508;54.368;18.406;2023-04-28T06:13:40;6.65;;;2.83;;
68315;SDS011;55508;54.368;18.406;2023-04-28T06:16:07;6.80;;;2.90;;
68315;SDS011;55508;54.368;18.406;2023-04-28T06:18:35;6.20;;;2.60;;
68315;SDS011;55508;54.368;18.406;2023-04-28T06:21:03;5.50;;;2.25;;
68315;SDS011;55508;54.368;18.406;2023-04-28T06:23:30;3.45;;;2.30;;
68315;SDS011;55508;54.368;18.406;2023-04-28T06:25:58;3.92;;;2.10;;
68315;SDS011;55508;54.368;18.406;2023-04-28T06:28:37;6.38;;;2.72;;
68315;SDS011;55508;54.368;18.406;2023-04-28T06:31:08;8.63;;;2.70;;
68315;SDS011;55508;54.368;18.406;2023-04-28T06:33:38;4.18;;;2.40;;
68315;SDS011;55508;54.368;18.406;2023-04-28T06:36:05;4.90;;;2.50;;
68315;SDS011;55508;54.368;18.406;2023-04-28T06:38:32;3.88;;;1.80;;
68315;SDS011;55508;54.368;18.406;2023-04-28T06:40:59;6.00;;;2.10;;
68315;SDS011;55508;54.368;18.406;2023-04-28T06:43:28;3.88;;;1.90;;
68315;SDS011;55508;54.368;18.406;2023-04-28T06:46:07;4.82;;;2.03;;
68315;SDS011;55508;54.368;18.406;2023-04-28T06:48:35;4.43;;;2.13;;
68315;SDS011;55508;54.368;18.406;2023-04-28T06:51:03;3.63;;;1.90;;
68315;SDS011;55508;54.368;18.406;2023-04-28T06:53:33;2.90;;;2.13;;
68315;SDS011;55508;54.368;18.406;2023-04-28T06:56:00;4.93;;;1.90;;
68315;SDS011;55508;54.368;18.406;2023-04-28T06:58:28;5.85;;;2.10;;
68315;SDS011;55508;54.368;18.406;2023-04-28T07:00:58;4.43;;;2.05;;
68315;SDS011;55508;54.368;18.406;2023-04-28T07:03:26;6.18;;;2.05;;
68315;SDS011;55508;54.368;18.406;2023-04-28T07:05:54;3.58;;;2.30;;
68315;SDS011;55508;54.368;18.406;2023-04-28T07:08:26;7.95;;;2.00;;
68315;SDS011;55508;54.368;18.406;2023-04-28T07:10:56;4.15;;;1.92;;
68315;SDS011;55508;54.368;18.406;2023-04-28T07:13:23;2.95;;;2.00;;
68315;SDS011;55508;54.368;18.406;2023-04-28T07:15:51;4.05;;;2.13;;
68315;SDS011;55508;54.368;18.406;2023-04-28T07:18:19;5.47;;;1.63;;
68315;SDS011;55508;54.368;18.406;2023-04-28T07:20:46;6.60;;;1.60;;
68315;SDS011;55508;54.368;18.406;2023-04-28T07:23:18;4.10;;;2.00;;
68315;SDS011;55508;54.368;18.406;2023-04-28T07:25:48;2.42;;;1.67;;
68315;SDS011;55508;54.368;18.406;2023-04-28T07:28:16;2.83;;;1.60;;
68315;SDS011;55508;54.368;18.406;2023-04-28T07:30:43;3.53;;;1.73;;
68315;SDS011;55508;54.368;18.406;2023-04-28T07:33:11;3.83;;;1.88;;
68315;SDS011;55508;54.368;18.406;2023-04-28T07:35:41;4.35;;;1.55;;
68315;SDS011;55508;54.368;18.406;2023-04-28T07:38:14;4.18;;;1.60;;
68315;SDS011;55508;54.368;18.406;2023-04-28T07:40:43;3.60;;;1.73;;
68315;SDS011;55508;54.368;18.406;2023-04-28T07:43:12;13.55;;;2.00;;
68315;SDS011;55508;54.368;18.406;2023-04-28T07:45:40;11.65;;;1.77;;
68315;SDS011;55508;54.368;18.406;2023-04-28T07:48:08;4.90;;;1.50;;
68315;SDS011;55508;54.368;18.406;2023-04-28T07:50:36;8.27;;;1.75;;
68315;SDS011;55508;54.368;18.406;2023-04-28T07:53:04;1.45;;;1.30;;
68315;SDS011;55508;54.368;18.406;2023-04-28T07:55:31;3.35;;;1.92;;
68315;SDS011;55508;54.368;18.406;2023-04-28T07:57:59;4.22;;;1.30;;
68315;SDS011;55508;54.368;18.406;2023-04-28T08:00:26;2.80;;;1.60;;
68315;SDS011;55508;54.368;18.406;2023-04-28T08:02:54;3.83;;;1.58;;
68315;SDS011;55508;54.368;18.406;2023-04-28T08:05:23;4.25;;;1.30;;
68315;SDS011;55508;54.368;18.406;2023-04-28T08:07:52;3.15;;;1.33;;
68315;SDS011;55508;54.368;18.406;2023-04-28T08:10:20;4.20;;;1.60;;
68315;SDS011;55508;54.368;18.406;2023-04-28T08:12:48;3.92;;;1.40;;
68315;SDS011;55508;54.368;18.406;2023-04-28T08:15:15;2.60;;;1.38;;
68315;SDS011;55508;54.368;18.406;2023-04-28T08:17:44;2.08;;;1.13;;
68315;SDS011;55508;54.368;18.406;2023-04-28T08:20:12;2.33;;;1.23;;
68315;SDS011;55508;54.368;18.406;2023-04-28T08:22:41;30.98;;;2.80;;
68315;SDS011;55508;54.368;18.406;2023-04-28T08:25:09;5.80;;;1.40;;
68315;SDS011;55508;54.368;18.406;2023-04-28T08:27:37;2.55;;;1.65;;
68315;SDS011;55508;54.368;18.406;2023-04-28T08:30:09;3.03;;;1.42;;
68315;SDS011;55508;54.368;18.406;2023-04-28T08:32:36;2.17;;;1.20;;
68315;SDS011;55508;54.368;18.406;2023-04-28T08:35:03;3.92;;;1.60;;
68315;SDS011;55508;54.368;18.406;2023-04-28T08:37:31;3.00;;;0.93;;
68315;SDS011;55508;54.368;18.406;2023-04-28T08:40:00;3.50;;;1.13;;
68315;SDS011;55508;54.368;18.406;2023-04-28T08:42:28;4.90;;;1.70;;
68315;SDS011;55508;54.368;18.406;2023-04-28T08:44:56;2.03;;;1.10;;
68315;SDS011;55508;54.368;18.406;2023-04-28T08:47:32;1.63;;;1.00;;
68315;SDS011;55508;54.368;18.406;2023-04-28T08:50:01;9.75;;;1.63;;
68315;SDS011;55508;54.368;18.406;2023-04-28T08:52:33;1.88;;;1.20;;
68315;SDS011;55508;54.368;18.406;2023-04-28T08:55:10;3.15;;;1.58;;
68315;SDS011;55508;54.368;18.406;2023-04-28T08:57:41;22.98;;;2.35;;
68315;SDS011;55508;54.368;18.406;2023-04-28T09:00:10;24.75;;;2.10;;
68315;SDS011;55508;54.368;18.406;2023-04-28T09:02:38;2.47;;;1.45;;
68315;SDS011;55508;54.368;18.406;2023-04-28T09:05:09;4.90;;;1.45;;
68315;SDS011;55508;54.368;18.406;2023-04-28T09:07:38;2.65;;;1.27;;
68315;SDS011;55508;54.368;18.406;2023-04-28T09:12:52;3.25;;;1.35;;
68315;SDS011;55508;54.368;18.406;2023-04-28T09:17:56;2.17;;;1.40;;
68315;SDS011;55508;54.368;18.406;2023-04-28T09:20:27;2.10;;;1.02;;
68315;SDS011;55508;54.368;18.406;2023-04-28T09:25:23;3.00;;;1.30;;
68315;SDS011;55508;54.368;18.406;2023-04-28T09:27:52;1.95;;;1.40;;
68315;SDS011;55508;54.368;18.406;2023-04-28T09:30:29;2.78;;;1.45;;
68315;SDS011;55508;54.368;18.406;2023-04-28T09:33:05;1.77;;;1.63;;
68315;SDS011;55508;54.368;18.406;2023-04-28T09:35:40;4.10;;;1.45;;
68315;SDS011;55508;54.368;18.406;2023-04-28T09:38:09;2.05;;;1.73;;
68315;SDS011;55508;54.368;18.406;2023-04-28T09:43:25;2.65;;;1.15;;
68315;SDS011;55508;54.368;18.406;2023-04-28T09:45:57;1.95;;;1.33;;
68315;SDS011;55508;54.368;18.406;2023-04-28T09:48:28;3.60;;;1.50;;
68315;SDS011;55508;54.368;18.406;2023-04-28T09:51:04;4.47;;;1.40;;
68315;SDS011;55508;54.368;18.406;2023-04-28T09:53:33;2.90;;;1.30;;
68315;SDS011;55508;54.368;18.406;2023-04-28T09:56:02;2.90;;;1.30;;
68315;SDS011;55508;54.368;18.406;2023-04-28T09:58:30;6.90;;;1.83;;
68315;SDS011;55508;54.368;18.406;2023-04-28T10:01:00;3.75;;;1.48;;
68315;SDS011;55508;54.368;18.406;2023-04-28T10:03:29;3.85;;;1.77;;
68315;SDS011;55508;54.368;18.406;2023-04-28T10:05:57;2.58;;;1.55;;
68315;SDS011;55508;54.368;18.406;2023-04-28T10:08:25;4.00;;;1.75;;
68315;SDS011;55508;54.368;18.406;2023-04-28T10:10:53;3.95;;;1.50;;
68315;SDS011;55508;54.368;18.406;2023-04-28T10:13:22;3.45;;;1.77;;
68315;SDS011;55508;54.368;18.406;2023-04-28T10:15:50;3.40;;;1.90;;
68315;SDS011;55508;54.368;18.406;2023-04-28T10:18:21;3.60;;;1.40;;
68315;SDS011;55508;54.368;18.406;2023-04-28T10:20:52;2.75;;;1.63;;
68315;SDS011;55508;54.368;18.406;2023-04-28T10:26:16;1.63;;;1.42;;
68315;SDS011;55508;54.368;18.406;2023-04-28T10:28:46;4.53;;;1.80;;
68315;SDS011;55508;54.368;18.406;2023-04-28T10:31:17;4.18;;;1.65;;
68315;SDS011;55508;54.368;18.406;2023-04-28T10:33:49;3.42;;;1.45;;
68315;SDS011;55508;54.368;18.406;2023-04-28T10:39:11;6.53;;;1.95;;
68315;SDS011;55508;54.368;18.406;2023-04-28T10:41:38;5.18;;;1.85;;
68315;SDS011;55508;54.368;18.406;2023-04-28T10:46:59;23.40;;;2.40;;
68315;SDS011;55508;54.368;18.406;2023-04-28T10:58:45;5.30;;;1.80;;
68315;SDS011;55508;54.368;18.406;2023-04-28T11:00:55;2.55;;;1.80;;
68315;SDS011;55508;54.368;18.406;2023-04-28T11:06:34;2.88;;;1.70;;
68315;SDS011;55508;54.368;18.406;2023-04-28T11:12:25;3.33;;;1.85;;
68315;SDS011;55508;54.368;18.406;2023-04-28T11:14:37;3.25;;;1.73;;
68315;SDS011;55508;54.368;18.406;2023-04-28T11:17:10;8.73;;;1.95;;
68315;SDS011;55508;54.368;18.406;2023-04-28T11:19:40;2.25;;;1.92;;
68315;SDS011;55508;54.368;18.406;2023-04-28T11:22:15;5.78;;;1.67;;
68315;SDS011;55508;54.368;18.406;2023-04-28T11:27:26;4.40;;;1.80;;
68315;SDS011;55508;54.368;18.406;2023-04-28T11:29:54;1.90;;;1.77;;
68315;SDS011;55508;54.368;18.406;2023-04-28T11:32:25;3.15;;;1.90;;
68315;SDS011;55508;54.368;18.406;2023-04-28T11:34:54;22.38;;;2.53;;
68315;SDS011;55508;54.368;18.406;2023-04-28T11:37:21;4.38;;;1.92;;
68315;SDS011;55508;54.368;18.406;2023-04-28T11:39:48;3.15;;;1.60;;
68315;SDS011;55508;54.368;18.406;2023-04-28T11:42:15;2.95;;;1.52;;
68315;SDS011;55508;54.368;18.406;2023-04-28T11:44:52;26.67;;;3.63;;
68315;SDS011;55508;54.368;18.406;2023-04-28T11:47:27;3.40;;;2.10;;
68315;SDS011;55508;54.368;18.406;2023-04-28T11:49:55;4.43;;;2.60;;
68315;SDS011;55508;54.368;18.406;2023-04-28T11:52:23;4.28;;;1.90;;
68315;SDS011;55508;54.368;18.406;2023-04-28T11:54:56;5.25;;;1.60;;
68315;SDS011;55508;54.368;18.406;2023-04-28T11:57:26;2.90;;;1.90;;
68315;SDS011;55508;54.368;18.406;2023-04-28T11:59:53;6.93;;;1.73;;
68315;SDS011;55508;54.368;18.406;2023-04-28T12:02:24;13.32;;;2.15;;
68315;SDS011;55508;54.368;18.406;2023-04-28T12:05:03;15.80;;;3.13;;
68315;SDS011;55508;54.368;18.406;2023-04-28T12:07:39;7.30;;;2.45;;
68315;SDS011;55508;54.368;18.406;2023-04-28T12:10:12;3.47;;;2.20;;
68315;SDS011;55508;54.368;18.406;2023-04-28T12:12:41;14.95;;;3.33;;
68315;SDS011;55508;54.368;18.406;2023-04-28T12:15:17;31.65;;;3.20;;
68315;SDS011;55508;54.368;18.406;2023-04-28T12:17:46;28.58;;;2.80;;
68315;SDS011;55508;54.368;18.406;2023-04-28T12:23:05;17.55;;;2.50;;
68315;SDS011;55508;54.368;18.406;2023-04-28T12:25:41;36.50;;;3.78;;
68315;SDS011;55508;54.368;18.406;2023-04-28T12:28:09;10.60;;;2.13;;
68315;SDS011;55508;54.368;18.406;2023-04-28T12:30:36;22.08;;;2.80;;
68315;SDS011;55508;54.368;18.406;2023-04-28T12:35:50;20.70;;;2.10;;
68315;SDS011;55508;54.368;18.406;2023-04-28T12:38:19;6.70;;;1.98;;
68315;SDS011;55508;54.368;18.406;2023-04-28T12:40:46;17.75;;;2.80;;
68315;SDS011;55508;54.368;18.406;2023-04-28T12:43:13;23.38;;;3.13;;
68315;SDS011;55508;54.368;18.406;2023-04-28T12:45:41;9.45;;;2.10;;
68315;SDS011;55508;54.368;18.406;2023-04-28T12:48:08;4.68;;;2.00;;
68315;SDS011;55508;54.368;18.406;2023-04-28T12:50:36;6.10;;;1.98;;
68315;SDS011;55508;54.368;18.406;2023-04-28T12:53:03;4.90;;;2.55;;
68315;SDS011;55508;54.368;18.406;2023-04-28T12:55:30;3.60;;;2.15;;
68315;SDS011;55508;54.368;18.406;2023-04-28T12:57:58;2.60;;;2.13;;
68315;SDS011;55508;54.368;18.406;2023-04-28T13:00:25;3.38;;;1.83;;
68315;SDS011;55508;54.368;18.406;2023-04-28T13:02:52;13.63;;;2.70;;
68315;SDS011;55508;54.368;18.406;2023-04-28T13:05:26;68.97;;;5.28;;
68315;SDS011;55508;54.368;18.406;2023-04-28T13:07:54;4.00;;;2.17;;
68315;SDS011;55508;54.368;18.406;2023-04-28T13:10:21;6.47;;;2.05;;
68315;SDS011;55508;54.368;18.406;2023-04-28T13:12:49;4.70;;;2.17;;
68315;SDS011;55508;54.368;18.406;2023-04-28T13:15:16;4.35;;;1.88;;
68315;SDS011;55508;54.368;18.406;2023-04-28T13:17:44;4.15;;;2.00;;
68315;SDS011;55508;54.368;18.406;2023-04-28T13:20:12;5.40;;;2.20;;
68315;SDS011;55508;54.368;18.406;2023-04-28T13:22:39;6.00;;;2.17;;
68315;SDS011;55508;54.368;18.406;2023-04-28T13:25:07;6.65;;;2.28;;
68315;SDS011;55508;54.368;18.406;2023-04-28T13:27:35;2.53;;;1.52;;
68315;SDS011;55508;54.368;18.406;2023-04-28T13:30:03;2.88;;;1.90;;
68315;SDS011;55508;54.368;18.406;2023-04-28T13:32:31;4.50;;;1.83;;
68315;SDS011;55508;54.368;18.406;2023-04-28T13:34:59;2.47;;;1.92;;
68315;SDS011;55508;54.368;18.406;2023-04-28T13:37:26;5.47;;;2.38;;
68315;SDS011;55508;54.368;18.406;2023-04-28T13:39:53;8.15;;;2.47;;
68315;SDS011;55508;54.368;18.406;2023-04-28T13:42:20;4.35;;;2.10;;
68315;SDS011;55508;54.368;18.406;2023-04-28T13:44:47;13.75;;;2.78;;
68315;SDS011;55508;54.368;18.406;2023-04-28T13:47:14;9.15;;;4.32;;
68315;SDS011;55508;54.368;18.406;2023-04-28T13:49:42;13.25;;;2.88;;
68315;SDS011;55508;54.368;18.406;2023-04-28T13:52:09;2.90;;;2.10;;
68315;SDS011;55508;54.368;18.406;2023-04-28T13:54:36;15.30;;;2.58;;
68315;SDS011;55508;54.368;18.406;2023-04-28T13:57:03;3.40;;;2.08;;
68315;SDS011;55508;54.368;18.406;2023-04-28T13:59:30;4.07;;;1.95;;
68315;SDS011;55508;54.368;18.406;2023-04-28T14:01:57;3.95;;;2.00;;
68315;SDS011;55508;54.368;18.406;2023-04-28T14:04:24;3.58;;;2.40;;
68315;SDS011;55508;54.368;18.406;2023-04-28T14:06:52;15.50;;;3.30;;
68315;SDS011;55508;54.368;18.406;2023-04-28T14:09:19;13.05;;;2.63;;
68315;SDS011;55508;54.368;18.406;2023-04-28T14:11:46;39.17;;;3.33;;
68315;SDS011;55508;54.368;18.406;2023-04-28T14:14:13;4.18;;;2.20;;
68315;SDS011;55508;54.368;18.406;2023-04-28T14:16:40;13.68;;;2.58;;
68315;SDS011;55508;54.368;18.406;2023-04-28T14:19:08;5.40;;;2.40;;
68315;SDS011;55508;54.368;18.406;2023-04-28T14:21:35;6.57;;;2.40;;
68315;SDS011;55508;54.368;18.406;2023-04-28T14:24:03;6.60;;;2.13;;
68315;SDS011;55508;54.368;18.406;2023-04-28T14:26:30;8.63;;;2.42;;
68315;SDS011;55508;54.368;18.406;2023-04-28T14:28:57;9.80;;;2.50;;
68315;SDS011;55508;54.368;18.406;2023-04-28T14:31:26;9.23;;;3.33;;
68315;SDS011;55508;54.368;18.406;2023-04-28T14:33:54;7.85;;;2.72;;
68315;SDS011;55508;54.368;18.406;2023-04-28T14:36:21;10.15;;;3.03;;
68315;SDS011;55508;54.368;18.406;2023-04-28T14:38:48;3.35;;;2.80;;
68315;SDS011;55508;54.368;18.406;2023-04-28T14:41:15;46.97;;;4.93;;
68315;SDS011;55508;54.368;18.406;2023-04-28T14:43:42;7.22;;;3.00;;
68315;SDS011;55508;54.368;18.406;2023-04-28T14:46:10;10.10;;;3.22;;
68315;SDS011;55508;54.368;18.406;2023-04-28T14:48:38;6.00;;;2.25;;
68315;SDS011;55508;54.368;18.406;2023-04-28T14:51:05;5.30;;;2.30;;
68315;SDS011;55508;54.368;18.406;2023-04-28T14:53:32;3.78;;;2.38;;
68315;SDS011;55508;54.368;18.406;2023-04-28T14:56:00;5.40;;;2.63;;
68315;SDS011;55508;54.368;18.406;2023-04-28T14:58:43;3.00;;;2.45;;
68315;SDS011;55508;54.368;18.406;2023-04-28T15:01:10;3.60;;;2.42;;
68315;SDS011;55508;54.368;18.406;2023-04-28T15:03:37;7.10;;;2.58;;
68315;SDS011;55508;54.368;18.406;2023-04-28T15:06:05;6.13;;;2.25;;
68315;SDS011;55508;54.368;18.406;2023-04-28T15:08:32;8.60;;;2.38;;
68315;SDS011;55508;54.368;18.406;2023-04-28T15:10:59;4.72;;;2.00;;
68315;SDS011;55508;54.368;18.406;2023-04-28T15:13:26;4.07;;;2.40;;
68315;SDS011;55508;54.368;18.406;2023-04-28T15:15:54;2.45;;;2.05;;
68315;SDS011;55508;54.368;18.406;2023-04-28T15:18:21;4.43;;;2.58;;
68315;SDS011;55508;54.368;18.406;2023-04-28T15:20:49;4.13;;;2.60;;
68315;SDS011;55508;54.368;18.406;2023-04-28T15:23:16;4.55;;;2.65;;
68315;SDS011;55508;54.368;18.406;2023-04-28T15:25:45;5.22;;;2.40;;
68315;SDS011;55508;54.368;18.406;2023-04-28T15:28:12;4.85;;;2.50;;